Walston, Pennsylvania
Current Conditions -  °F | °C
As of 1:27 AM on Monday 24 Nov 2014 (Local Time) from KDUJ Reporting Station
Light Rain Light Rain  
Wind Chill: 42°   Ceiling: 700
Heat Index: 48°   Visibility: 4mi
Dew Point: 46°   Wind: 15mph
Humidity: 93%   Direction: 130°SE
Pressure: 29.49"   Gusts: 29mph
Location:  40.96°N, 78.99°W
Report Text: KDUJ 240627Z AUTO 13013G25KT 4SM -RA BR BKN007 OVC011 09/08 A2949 RMK AO2 P0014 T00890078
Loading
Personal Weather Stations






























Interactive Weather Map New forecast layout! Learn more

10-Day Weather Forecast

Advertisements
Track Severe Weather on mobile